createdAt,value
2023-05-05T00:02:00.244Z,5.33
2023-05-05T00:04:29.183Z,9.20
2023-05-05T00:06:57.177Z,8.20
2023-05-05T00:09:24.637Z,5.80
2023-05-05T00:11:52.121Z,7.20
2023-05-05T00:14:19.612Z,6.30
2023-05-05T00:16:47.266Z,5.63
2023-05-05T00:19:14.881Z,5.17
2023-05-05T00:21:43.683Z,5.30
2023-05-05T00:24:11.422Z,4.97
2023-05-05T00:26:38.878Z,5.03
2023-05-05T00:29:06.350Z,5.57
2023-05-05T00:31:34.037Z,4.73
2023-05-05T00:34:01.689Z,5.60
2023-05-05T00:36:30.395Z,5.93
2023-05-05T00:38:59.205Z,5.87
2023-05-05T00:41:26.755Z,4.67
2023-05-05T00:43:54.218Z,5.00
2023-05-05T00:46:25.686Z,7.83
2023-05-05T00:48:53.787Z,5.87
2023-05-05T00:51:22.764Z,4.97
2023-05-05T00:53:50.946Z,5.30
2023-05-05T00:56:22.090Z,6.03
2023-05-05T00:58:50.319Z,5.47
2023-05-05T01:01:18.919Z,4.70
2023-05-05T01:03:46.641Z,5.70
2023-05-05T01:06:27.993Z,6.20
2023-05-05T01:09:05.427Z,7.83
2023-05-05T01:11:41.969Z,7.20
2023-05-05T01:14:14.379Z,6.43
2023-05-05T01:16:53.449Z,7.63
2023-05-05T01:19:41.346Z,5.83
2023-05-05T01:22:12.688Z,7.93
2023-05-05T01:24:50.723Z,7.47
2023-05-05T01:27:34.998Z,5.73
2023-05-05T01:30:16.533Z,8.87
2023-05-05T01:32:49.824Z,6.00
2023-05-05T01:35:23.473Z,7.43
2023-05-05T01:37:56.957Z,7.70
2023-05-05T01:40:27.807Z,9.33
2023-05-05T01:42:56.007Z,8.70
2023-05-05T01:45:27.336Z,8.47
2023-05-05T01:47:58.109Z,7.97
2023-05-05T01:50:28.942Z,7.00
2023-05-05T01:52:57.878Z,8.23
2023-05-05T01:55:26.883Z,6.37
2023-05-05T01:57:58.662Z,7.07
2023-05-05T02:00:27.026Z,8.50
2023-05-05T02:02:57.989Z,13.60
2023-05-05T02:05:26.503Z,10.20
2023-05-05T02:07:57.827Z,9.83
2023-05-05T02:10:25.673Z,12.13
2023-05-05T02:12:54.851Z,9.30
2023-05-05T02:15:24.500Z,8.30
2023-05-05T02:17:53.014Z,7.60
2023-05-05T02:20:23.426Z,8.97
2023-05-05T02:22:51.070Z,6.63
2023-05-05T02:25:18.726Z,6.87
2023-05-05T02:27:49.263Z,7.00
2023-05-05T02:30:20.792Z,9.37
2023-05-05T02:32:53.039Z,9.23
2023-05-05T02:35:23.777Z,6.70
2023-05-05T02:37:59.516Z,9.53
2023-05-05T02:40:29.603Z,8.23
2023-05-05T02:42:59.800Z,7.33
2023-05-05T02:45:29.422Z,7.87
2023-05-05T02:47:57.041Z,11.77
2023-05-05T02:50:25.903Z,8.23
2023-05-05T02:52:53.495Z,10.83
2023-05-05T02:55:21.227Z,12.87
2023-05-05T02:57:54.557Z,10.63
2023-05-05T03:00:31.282Z,13.80
2023-05-05T03:03:08.939Z,11.27
2023-05-05T03:05:43.813Z,12.83
2023-05-05T03:08:17.095Z,13.93
2023-05-05T03:10:48.792Z,11.40
2023-05-05T03:13:19.405Z,15.10
2023-05-05T03:15:50.255Z,14.97
2023-05-05T03:18:20.845Z,13.03
2023-05-05T03:20:49.898Z,15.63
2023-05-05T03:23:20.728Z,15.77
2023-05-05T03:25:49.804Z,15.50
2023-05-05T03:28:18.894Z,12.63
2023-05-05T03:30:46.575Z,10.90
2023-05-05T03:33:14.033Z,13.30
2023-05-05T03:35:41.468Z,12.43
2023-05-05T03:38:10.306Z,15.30
2023-05-05T03:40:44.288Z,12.27
2023-05-05T03:43:12.205Z,9.47
2023-05-05T03:45:39.723Z,10.87
2023-05-05T03:48:09.522Z,10.87
2023-05-05T03:50:37.581Z,8.90
2023-05-05T03:53:05.185Z,13.47
2023-05-05T03:55:33.979Z,15.30
2023-05-05T03:58:01.421Z,12.40
2023-05-05T04:00:28.913Z,9.53
2023-05-05T04:02:56.475Z,16.33
2023-05-05T04:05:23.975Z,12.53
2023-05-05T04:07:51.411Z,16.40
2023-05-05T04:10:19.102Z,13.53
2023-05-05T04:12:47.920Z,11.90
2023-05-05T04:15:15.640Z,9.37
2023-05-05T04:17:43.175Z,13.00
2023-05-05T04:20:11.278Z,12.93
2023-05-05T04:22:38.828Z,15.77
2023-05-05T04:25:07.221Z,10.17
2023-05-05T04:27:34.719Z,10.80
2023-05-05T04:30:03.504Z,13.67
2023-05-05T04:32:31.189Z,10.33
2023-05-05T04:34:58.637Z,10.33
2023-05-05T04:37:26.178Z,11.70
2023-05-05T04:39:53.864Z,14.38
2023-05-05T04:42:21.314Z,13.00
2023-05-05T04:44:48.773Z,9.43
2023-05-05T04:47:17.599Z,9.27
2023-05-05T04:49:45.092Z,12.18
2023-05-05T04:52:13.604Z,8.38
2023-05-05T04:54:41.098Z,11.88
2023-05-05T04:57:08.599Z,7.50
2023-05-05T04:59:36.358Z,9.32
2023-05-05T05:02:03.968Z,8.93
2023-05-05T05:04:32.840Z,8.95
2023-05-05T05:07:01.313Z,6.45
2023-05-05T05:09:28.760Z,8.88
2023-05-05T05:12:00.185Z,8.95
2023-05-05T05:14:28.067Z,7.78
2023-05-05T05:16:55.572Z,6.70
2023-05-05T05:19:23.067Z,6.10
2023-05-05T05:21:51.847Z,6.50
2023-05-05T05:24:19.336Z,6.93
2023-05-05T05:26:46.866Z,8.43
2023-05-05T05:29:14.314Z,7.82
2023-05-05T05:31:41.755Z,5.75
2023-05-05T05:34:10.745Z,10.77
2023-05-05T05:36:40.111Z,6.22
2023-05-05T05:39:08.933Z,6.15
2023-05-05T05:41:36.393Z,9.98
2023-05-05T05:44:03.880Z,6.40
2023-05-05T05:46:31.383Z,7.25
2023-05-05T05:48:58.950Z,7.75
2023-05-05T05:51:26.424Z,6.75
2023-05-05T05:53:53.914Z,7.10
2023-05-05T05:56:22.824Z,9.55
2023-05-05T05:58:50.261Z,11.15
2023-05-05T06:01:17.720Z,8.40
2023-05-05T06:03:45.281Z,8.40
2023-05-05T06:06:12.861Z,11.57
2023-05-05T06:08:40.354Z,8.18
2023-05-05T06:11:07.885Z,7.22
2023-05-05T06:13:36.701Z,9.93
2023-05-05T06:16:04.252Z,8.57
2023-05-05T06:18:31.737Z,8.88
2023-05-05T06:21:00.170Z,7.95
2023-05-05T06:23:28.018Z,8.05
2023-05-05T06:25:55.649Z,8.70
2023-05-05T06:28:23.136Z,8.57
2023-05-05T06:30:51.931Z,6.78
2023-05-05T06:33:19.412Z,7.70
2023-05-05T06:35:47.760Z,9.88
2023-05-05T06:38:15.215Z,12.93
2023-05-05T06:40:43.046Z,6.43
2023-05-05T06:43:11.124Z,8.65
2023-05-05T06:45:38.647Z,9.88
2023-05-05T06:48:07.514Z,9.73
2023-05-05T06:50:35.027Z,8.68
2023-05-05T06:53:02.454Z,6.45
2023-05-05T06:55:29.949Z,5.72
2023-05-05T06:57:57.402Z,6.30
2023-05-05T07:00:25.133Z,6.80
2023-05-05T07:02:52.673Z,8.02
2023-05-05T07:05:21.855Z,7.30
2023-05-05T07:07:53.532Z,7.50
2023-05-05T07:10:22.326Z,7.28
2023-05-05T07:12:50.524Z,6.10
2023-05-05T07:15:27.441Z,7.88
2023-05-05T07:17:56.991Z,6.30
2023-05-05T07:20:26.576Z,7.07
2023-05-05T07:22:54.201Z,5.90
2023-05-05T07:25:22.075Z,5.10
2023-05-05T07:27:49.555Z,6.05
2023-05-05T07:30:18.748Z,7.35
2023-05-05T07:32:46.996Z,5.82
2023-05-05T07:35:14.722Z,9.48
2023-05-05T07:37:43.526Z,6.30
2023-05-05T07:40:11.787Z,6.88
2023-05-05T07:42:39.402Z,5.88
2023-05-05T07:45:07.919Z,6.47
2023-05-05T07:47:35.445Z,7.10
2023-05-05T07:50:02.977Z,7.25
2023-05-05T07:52:45.130Z,7.55
2023-05-05T07:55:17.036Z,6.68
2023-05-05T07:57:44.515Z,15.80
2023-05-05T08:00:13.794Z,7.25
2023-05-05T08:02:41.693Z,7.45
2023-05-05T08:05:10.041Z,7.13
2023-05-05T08:07:41.105Z,5.63
2023-05-05T08:10:10.541Z,7.03
2023-05-05T08:12:39.560Z,6.18
2023-05-05T08:15:08.161Z,6.38
2023-05-05T08:17:47.200Z,6.50
2023-05-05T08:20:14.796Z,7.32
2023-05-05T08:22:42.913Z,6.10
2023-05-05T08:25:11.473Z,6.78
2023-05-05T08:27:41.708Z,6.28
2023-05-05T08:30:10.262Z,5.90
2023-05-05T08:32:38.283Z,6.60
2023-05-05T08:35:07.264Z,6.38
2023-05-05T08:37:35.236Z,6.57
2023-05-05T08:40:02.704Z,7.28
2023-05-05T08:42:38.060Z,8.27
2023-05-05T08:45:10.183Z,7.72
2023-05-05T08:47:39.597Z,6.93
2023-05-05T08:50:10.944Z,5.75
2023-05-05T08:52:40.919Z,8.45
2023-05-05T08:55:15.246Z,6.35
2023-05-05T08:57:47.160Z,8.07
2023-05-05T09:00:18.995Z,6.38
2023-05-05T09:02:47.895Z,8.25
2023-05-05T09:05:16.140Z,6.05
2023-05-05T09:07:44.018Z,6.32
2023-05-05T09:10:12.960Z,6.25
2023-05-05T09:12:41.343Z,8.07
2023-05-05T09:15:09.964Z,6.45
2023-05-05T09:17:39.643Z,7.70
2023-05-05T09:20:09.182Z,7.50
2023-05-05T09:22:38.562Z,7.75
2023-05-05T09:25:07.887Z,8.20
2023-05-05T09:27:38.922Z,8.10
2023-05-05T09:30:08.257Z,8.52
2023-05-05T09:32:48.812Z,7.75
2023-05-05T09:35:17.088Z,10.55
2023-05-05T09:37:45.066Z,9.43
2023-05-05T09:40:15.292Z,12.57
2023-05-05T09:42:42.756Z,9.32
2023-05-05T09:45:27.609Z,7.93
2023-05-05T09:47:59.590Z,6.75
2023-05-05T09:50:30.507Z,7.60
2023-05-05T09:53:00.022Z,8.38
2023-05-05T09:55:28.013Z,12.05
2023-05-05T09:57:55.596Z,7.47
2023-05-05T10:00:23.481Z,7.13
2023-05-05T10:02:50.961Z,7.22
2023-05-05T10:05:20.074Z,7.80
2023-05-05T10:07:48.747Z,6.95
2023-05-05T10:10:18.395Z,8.23
2023-05-05T10:12:47.445Z,10.13
2023-05-05T10:15:16.491Z,6.70
2023-05-05T10:18:02.406Z,6.30
2023-05-05T10:20:37.426Z,8.07
2023-05-05T10:23:07.846Z,7.00
2023-05-05T10:25:43.044Z,6.25
2023-05-05T10:28:16.649Z,6.25
2023-05-05T10:30:46.984Z,7.05
2023-05-05T10:33:31.630Z,7.40
2023-05-05T10:36:05.265Z,6.60
2023-05-05T10:38:33.455Z,6.43
2023-05-05T10:41:02.299Z,8.15
2023-05-05T10:43:31.921Z,7.45
2023-05-05T10:46:00.551Z,7.57
2023-05-05T10:48:33.856Z,6.20
2023-05-05T10:51:14.176Z,11.90
2023-05-05T10:53:57.011Z,6.28
2023-05-05T10:56:28.849Z,5.70
2023-05-05T10:59:00.154Z,6.97
2023-05-05T11:01:33.398Z,6.15
2023-05-05T11:04:21.418Z,8.68
2023-05-05T11:07:25.875Z,6.30
2023-05-05T11:09:58.455Z,6.30
2023-05-05T11:12:25.989Z,9.85
2023-05-05T11:15:30.642Z,5.30
2023-05-05T11:17:59.128Z,5.63
2023-05-05T11:21:04.245Z,5.38
2023-05-05T11:23:33.050Z,5.95
2023-05-05T11:26:01.767Z,4.72
2023-05-05T11:28:31.101Z,6.47
2023-05-05T11:31:18.722Z,6.40
2023-05-05T11:33:46.578Z,6.10
2023-05-05T11:36:15.579Z,6.22
2023-05-05T11:38:56.014Z,6.40
2023-05-05T11:41:42.009Z,5.63
2023-05-05T11:44:10.472Z,4.80
2023-05-05T11:46:38.504Z,4.28
2023-05-05T11:49:06.207Z,5.32
2023-05-05T11:51:34.421Z,6.47
2023-05-05T11:54:03.403Z,5.18
2023-05-05T11:56:30.887Z,5.50
2023-05-05T11:59:10.516Z,6.63
2023-05-05T12:01:41.683Z,6.60
2023-05-05T12:04:09.593Z,5.05
2023-05-05T12:06:37.218Z,4.30
2023-05-05T12:09:06.169Z,4.70
2023-05-05T12:11:33.845Z,4.50
2023-05-05T12:14:11.110Z,4.88
2023-05-05T12:16:38.928Z,14.00
2023-05-05T12:19:07.875Z,6.85
2023-05-05T12:21:36.226Z,5.82
2023-05-05T12:24:03.756Z,4.50
2023-05-05T12:26:33.206Z,6.07
2023-05-05T12:29:01.723Z,5.18
2023-05-05T12:31:36.604Z,5.38
2023-05-05T12:34:05.253Z,3.53
2023-05-05T12:36:34.016Z,3.55
2023-05-05T12:39:01.629Z,4.10
2023-05-05T12:41:29.257Z,3.20
2023-05-05T12:43:59.580Z,3.65
2023-05-05T12:46:29.558Z,3.85
2023-05-05T12:49:01.750Z,3.83
2023-05-05T12:51:29.411Z,5.97
2023-05-05T12:54:05.430Z,3.53
2023-05-05T12:56:34.360Z,4.63
2023-05-05T12:59:05.314Z,2.90
2023-05-05T13:01:33.246Z,3.17
2023-05-05T13:04:11.843Z,3.47
2023-05-05T13:06:40.358Z,4.90
2023-05-05T13:09:09.934Z,7.60
2023-05-05T13:11:38.482Z,5.53
2023-05-05T13:14:08.216Z,3.55
2023-05-05T13:16:35.863Z,3.50
2023-05-05T13:19:03.399Z,5.47
2023-05-05T13:21:31.475Z,3.40
2023-05-05T13:24:08.217Z,4.05
2023-05-05T13:26:40.585Z,11.93
2023-05-05T13:29:09.364Z,5.85
2023-05-05T13:31:36.915Z,4.85
2023-05-05T13:34:04.399Z,4.72
2023-05-05T13:36:31.928Z,6.75
2023-05-05T13:38:59.390Z,4.65
2023-05-05T13:41:26.978Z,6.18
2023-05-05T13:43:54.476Z,5.47
2023-05-05T13:46:23.336Z,5.80
2023-05-05T13:48:56.052Z,6.03
2023-05-05T13:51:24.015Z,5.70
2023-05-05T13:53:51.460Z,7.90
2023-05-05T13:56:19.110Z,7.28
2023-05-05T13:58:46.569Z,5.03
2023-05-05T14:01:14.132Z,4.85
2023-05-05T14:03:43.029Z,6.18
2023-05-05T14:06:10.710Z,5.53
2023-05-05T14:08:38.181Z,5.43
2023-05-05T14:11:05.842Z,5.15
2023-05-05T14:13:33.316Z,5.18
2023-05-05T14:16:00.959Z,5.63
2023-05-05T14:18:28.556Z,7.43
2023-05-05T14:20:57.395Z,6.60
2023-05-05T14:23:24.866Z,5.00
2023-05-05T14:25:52.421Z,5.35
2023-05-05T14:28:19.864Z,5.60
2023-05-05T14:30:47.313Z,5.50
2023-05-05T14:33:14.755Z,4.60
2023-05-05T14:35:42.223Z,6.88
2023-05-05T14:38:11.044Z,7.43
2023-05-05T14:40:38.527Z,5.05
2023-05-05T14:43:06.096Z,5.07
2023-05-05T14:45:34.034Z,5.38
2023-05-05T14:48:01.545Z,4.97
2023-05-05T14:50:29.054Z,6.15
2023-05-05T14:52:56.553Z,5.28
2023-05-05T14:55:26.063Z,5.22
2023-05-05T14:57:53.527Z,4.50
2023-05-05T15:00:21.086Z,5.38
2023-05-05T15:02:49.013Z,5.97
2023-05-05T15:05:16.669Z,5.18
2023-05-05T15:07:44.152Z,4.30
2023-05-05T15:10:12.070Z,7.28
2023-05-05T15:12:42.154Z,4.55
2023-05-05T15:15:10.346Z,4.00
2023-05-05T15:17:38.698Z,3.53
2023-05-05T15:20:08.078Z,4.13
2023-05-05T15:22:35.696Z,4.07
2023-05-05T15:25:03.311Z,4.10
2023-05-05T15:27:31.710Z,6.55
2023-05-05T15:30:01.108Z,3.67
2023-05-05T15:32:28.663Z,3.65
2023-05-05T15:34:56.295Z,5.90
2023-05-05T15:37:23.866Z,4.38
2023-05-05T15:39:51.500Z,4.18
2023-05-05T15:42:18.970Z,4.57
2023-05-05T15:44:46.424Z,4.53
2023-05-05T15:47:15.309Z,4.22
2023-05-05T15:49:42.840Z,4.25
2023-05-05T15:52:10.360Z,4.80
2023-05-05T15:54:37.843Z,4.65
2023-05-05T15:57:05.318Z,4.25
2023-05-05T15:59:32.787Z,4.60
2023-05-05T16:02:00.396Z,4.68
2023-05-05T16:04:29.184Z,6.60
2023-05-05T16:06:57.954Z,5.20
2023-05-05T16:09:25.441Z,4.95
2023-05-05T16:11:53.869Z,5.00
2023-05-05T16:14:21.366Z,4.80
2023-05-05T16:16:48.874Z,4.60
2023-05-05T16:19:16.544Z,4.93
2023-05-05T16:21:45.414Z,5.20
2023-05-05T16:24:16.017Z,4.20
2023-05-05T16:26:43.621Z,5.10
2023-05-05T16:29:11.254Z,4.32
2023-05-05T16:31:39.011Z,4.82
2023-05-05T16:34:06.926Z,4.15
2023-05-05T16:36:34.413Z,4.20
2023-05-05T16:39:03.267Z,4.47
2023-05-05T16:41:30.793Z,5.40
2023-05-05T16:43:58.336Z,4.57
2023-05-05T16:46:25.902Z,4.82
2023-05-05T16:48:53.719Z,4.13
2023-05-05T16:51:21.223Z,4.78
2023-05-05T16:53:49.138Z,5.00
2023-05-05T16:56:17.997Z,5.68
2023-05-05T16:58:45.466Z,4.03
2023-05-05T17:01:12.962Z,6.50
2023-05-05T17:03:40.493Z,4.10
2023-05-05T17:06:08.089Z,3.80
2023-05-05T17:08:35.655Z,4.47
2023-05-05T17:11:03.141Z,4.10
2023-05-05T17:13:31.973Z,4.07
2023-05-05T17:15:59.472Z,4.45
2023-05-05T17:18:26.930Z,4.18
2023-05-05T17:20:54.398Z,4.60
2023-05-05T17:23:22.053Z,4.72
2023-05-05T17:25:49.696Z,4.32
2023-05-05T17:28:17.511Z,5.53
2023-05-05T17:30:46.795Z,5.13
2023-05-05T17:33:16.732Z,5.47
2023-05-05T17:35:44.196Z,6.93
2023-05-05T17:38:11.782Z,6.35
2023-05-05T17:40:39.315Z,6.15
2023-05-05T17:43:07.387Z,6.25
2023-05-05T17:45:34.878Z,6.53
2023-05-05T17:48:03.761Z,5.90
2023-05-05T17:50:31.229Z,6.13
2023-05-05T17:52:58.694Z,5.78
2023-05-05T17:55:26.371Z,6.82
2023-05-05T17:57:55.716Z,5.03
2023-05-05T18:00:23.431Z,5.20
2023-05-05T18:02:50.999Z,7.47
2023-05-05T18:05:20.548Z,5.05
2023-05-05T18:07:48.020Z,5.93
2023-05-05T18:10:16.570Z,5.40
2023-05-05T18:12:44.075Z,6.60
2023-05-05T18:15:12.664Z,8.45
2023-05-05T18:17:40.407Z,5.78
2023-05-05T18:20:08.951Z,5.10
2023-05-05T18:22:37.762Z,9.60
2023-05-05T18:25:07.877Z,7.78
2023-05-05T18:27:35.937Z,5.43
2023-05-05T18:30:04.646Z,5.75
2023-05-05T18:32:32.194Z,7.38
2023-05-05T18:34:59.715Z,6.50
2023-05-05T18:37:27.816Z,6.80
2023-05-05T18:39:56.593Z,6.88
2023-05-05T18:42:24.073Z,9.30
2023-05-05T18:44:51.505Z,5.93
2023-05-05T18:47:20.362Z,6.25
2023-05-05T18:49:47.858Z,7.70
2023-05-05T18:52:15.565Z,12.88
2023-05-05T18:54:43.072Z,10.73
2023-05-05T18:57:11.892Z,7.15
2023-05-05T18:59:39.342Z,6.20
2023-05-05T19:02:07.830Z,6.05
2023-05-05T19:04:37.890Z,6.30
2023-05-05T19:07:05.976Z,6.90
2023-05-05T19:09:33.681Z,7.63
2023-05-05T19:12:02.305Z,7.47
2023-05-05T19:14:31.100Z,10.07
2023-05-05T19:16:59.030Z,8.10
2023-05-05T19:19:26.768Z,7.60
2023-05-05T19:21:54.297Z,8.05
2023-05-05T19:24:21.772Z,10.95
2023-05-05T19:26:49.362Z,13.07
2023-05-05T19:29:16.957Z,10.38
2023-05-05T19:31:45.779Z,7.68
2023-05-05T19:34:13.249Z,7.47
2023-05-05T19:36:40.724Z,6.65
2023-05-05T19:39:08.214Z,8.82
2023-05-05T19:41:36.229Z,7.82
2023-05-05T19:44:03.720Z,7.40
2023-05-05T19:46:31.233Z,8.15
2023-05-05T19:49:00.196Z,7.72
2023-05-05T19:51:28.028Z,8.15
2023-05-05T19:53:55.570Z,8.55
2023-05-05T19:56:23.891Z,8.05
2023-05-05T19:58:54.574Z,10.23
2023-05-05T20:01:22.093Z,10.00
2023-05-05T20:03:49.806Z,8.85
2023-05-05T20:06:18.771Z,7.80
2023-05-05T20:08:46.263Z,7.72
2023-05-05T20:11:15.258Z,8.45
2023-05-05T20:13:43.019Z,8.88
2023-05-05T20:16:10.740Z,8.63
2023-05-05T20:18:38.390Z,8.13
2023-05-05T20:21:05.899Z,8.65
2023-05-05T20:23:34.885Z,10.05
2023-05-05T20:26:02.484Z,11.63
2023-05-05T20:28:31.336Z,11.23
2023-05-05T20:31:00.479Z,10.80
2023-05-05T20:33:28.628Z,14.32
2023-05-05T20:35:56.192Z,11.98
2023-05-05T20:38:23.878Z,13.02
2023-05-05T20:40:52.992Z,15.38
2023-05-05T20:43:21.098Z,11.02
2023-05-05T20:45:48.601Z,11.57
2023-05-05T20:48:16.122Z,11.88
2023-05-05T20:50:44.092Z,12.98
2023-05-05T20:53:13.712Z,12.32
2023-05-05T20:55:41.545Z,12.05
2023-05-05T20:58:10.417Z,13.23
2023-05-05T21:00:37.935Z,14.38
2023-05-05T21:03:05.954Z,14.88
2023-05-05T21:05:33.514Z,14.95
2023-05-05T21:08:01.415Z,16.38
2023-05-05T21:10:31.904Z,15.23
2023-05-05T21:12:59.469Z,16.05
2023-05-05T21:15:28.457Z,15.18
2023-05-05T21:17:57.163Z,14.85
2023-05-05T21:20:24.764Z,16.65
2023-05-05T21:22:52.317Z,18.80
2023-05-05T21:25:21.462Z,17.05
2023-05-05T21:27:49.698Z,17.35
2023-05-05T21:30:17.680Z,17.58
2023-05-05T21:32:46.730Z,18.35
2023-05-05T21:35:14.226Z,17.95
2023-05-05T21:37:41.748Z,20.10
2023-05-05T21:40:13.924Z,19.98
2023-05-05T21:42:42.145Z,21.08
2023-05-05T21:45:11.272Z,21.02
2023-05-05T21:47:38.843Z,18.90
2023-05-05T21:50:09.625Z,19.45
2023-05-05T21:52:37.271Z,19.80
2023-05-05T21:55:05.631Z,15.30
2023-05-05T21:57:33.087Z,17.10
2023-05-05T22:00:00.565Z,15.52
2023-05-05T22:02:28.117Z,15.18
2023-05-05T22:04:55.666Z,18.55
2023-05-05T22:07:25.826Z,16.67
2023-05-05T22:09:53.476Z,18.67
2023-05-05T22:12:20.929Z,17.25
2023-05-05T22:14:48.411Z,16.83
2023-05-05T22:17:16.069Z,14.90
2023-05-05T22:19:43.536Z,15.23
2023-05-05T22:22:10.997Z,11.48
2023-05-05T22:24:39.766Z,12.40
2023-05-05T22:27:07.211Z,10.93
2023-05-05T22:29:34.647Z,15.88
2023-05-05T22:32:02.117Z,10.57
2023-05-05T22:34:29.798Z,9.98
2023-05-05T22:36:57.313Z,10.38
2023-05-05T22:39:24.784Z,10.85
2023-05-05T22:41:53.621Z,9.77
2023-05-05T22:44:21.106Z,10.70
2023-05-05T22:46:48.594Z,11.38
2023-05-05T22:49:16.626Z,10.77
2023-05-05T22:51:44.127Z,10.73
2023-05-05T22:54:11.612Z,10.25
2023-05-05T22:56:39.354Z,10.65
2023-05-05T22:59:08.180Z,11.32
2023-05-05T23:01:36.170Z,11.82
2023-05-05T23:04:03.742Z,11.55
2023-05-05T23:06:32.113Z,10.40
2023-05-05T23:08:59.570Z,10.40
2023-05-05T23:11:27.242Z,11.07
2023-05-05T23:13:54.685Z,10.57
2023-05-05T23:16:23.519Z,13.10
2023-05-05T23:18:50.982Z,10.45
2023-05-05T23:21:18.435Z,11.18
2023-05-05T23:23:46.017Z,11.55
2023-05-05T23:26:14.266Z,11.90
2023-05-05T23:28:41.762Z,10.15
2023-05-05T23:31:09.913Z,9.52
2023-05-05T23:33:38.736Z,11.45
2023-05-05T23:36:06.636Z,11.30
2023-05-05T23:38:34.075Z,11.73
2023-05-05T23:41:01.530Z,11.82
2023-05-05T23:43:28.990Z,11.93
2023-05-05T23:45:56.478Z,12.85
2023-05-05T23:48:24.009Z,12.77
2023-05-05T23:50:53.336Z,12.43
2023-05-05T23:53:20.831Z,12.00
2023-05-05T23:55:48.335Z,11.50
2023-05-05T23:58:15.799Z,11.77
